Time;durP1;ratioP1;P1;durP2;ratioP2;P2;SDS_P1;SDS_P2;PMS_P1;PMS_P2;Temp;Humidity;BMP_temperature;BMP_pressure;BME280_temperature;BME280_humidity;BME280_pressure;Samples;Min_cycle;Max_cycle;Signal;HPM_P1;HPM_P2
2021/12/14 00:02:09;;;;;;;6.60;6.00;;;;;;;;;;5077933;28;20215;-66
2021/12/14 00:04:40;;;;;;;6.32;5.82;;;;;;;;;;5077574;28;20210;-66
2021/12/14 00:07:10;;;;;;;7.20;6.50;;;;;;;;;;5066963;28;20480;-66
2021/12/14 00:09:39;;;;;;;6.35;5.78;;;;;;;;;;5057567;28;20213;-65
2021/12/14 00:12:18;;;;;;;6.18;5.68;;;;;;;;;;5057768;28;20255;-66
2021/12/14 00:15:04;;;;;;;7.57;6.40;;;;;;;;;;5057632;28;20517;-67
2021/12/14 00:17:33;;;;;;;6.32;5.82;;;;;;;;;;5070796;28;20466;-67
2021/12/14 00:20:02;;;;;;;7.28;6.68;;;;;;;;;;5077574;28;20240;-66
2021/12/14 00:22:36;;;;;;;6.80;6.30;;;;;;;;;;5062732;28;20275;-67
2021/12/14 00:25:03;;;;;;;7.10;6.50;;;;;;;;;;5057330;28;20553;-67
2021/12/14 00:27:30;;;;;;;8.52;7.32;;;;;;;;;;5070052;28;20220;-67
2021/12/14 00:29:57;;;;;;;7.20;6.50;;;;;;;;;;5077486;28;20254;-66
2021/12/14 00:32:25;;;;;;;6.57;5.88;;;;;;;;;;5076303;28;20584;-67
2021/12/14 00:34:52;;;;;;;6.63;5.93;;;;;;;;;;5076961;28;20208;-66
2021/12/14 00:37:22;;;;;;;7.32;6.43;;;;;;;;;;5077001;28;20223;-66
2021/12/14 00:39:50;;;;;;;6.38;5.78;;;;;;;;;;5077145;28;20200;-66
2021/12/14 00:42:18;;;;;;;7.38;6.35;;;;;;;;;;5065339;28;20575;-66
2021/12/14 00:44:45;;;;;;;7.00;6.30;;;;;;;;;;5056813;28;20225;-67
2021/12/14 00:47:12;;;;;;;6.80;6.07;;;;;;;;;;5066281;28;20606;-67
2021/12/14 00:49:39;;;;;;;6.93;6.32;;;;;;;;;;5076253;28;20244;-67
2021/12/14 00:52:06;;;;;;;9.23;6.03;;;;;;;;;;5067229;28;20276;-65
2021/12/14 00:54:34;;;;;;;5.95;5.30;;;;;;;;;;5056944;28;20200;-65
2021/12/14 00:57:03;;;;;;;5.47;5.07;;;;;;;;;;5056809;28;20205;-66
2021/12/14 01:11:45;;;;;;;7.35;6.07;;;;;;;;;;5078269;28;20238;-68
2021/12/14 01:14:16;;;;;;;6.60;6.07;;;;;;;;;;5077536;28;20415;-68
2021/12/14 01:16:53;;;;;;;7.07;5.97;;;;;;;;;;5078725;28;20439;-69
2021/12/14 01:19:25;;;;;;;7.28;5.70;;;;;;;;;;5078989;28;20273;-69
2021/12/14 01:25:00;;;;;;;6.70;6.00;;;;;;;;;;5079165;28;20271;-68
2021/12/14 01:27:30;;;;;;;6.25;5.60;;;;;;;;;;5065197;28;20216;-69
2021/12/14 01:29:57;;;;;;;7.10;6.47;;;;;;;;;;5074973;28;20216;-69
2021/12/14 01:32:28;;;;;;;7.38;6.00;;;;;;;;;;5077387;28;20261;-69
2021/12/14 01:34:54;;;;;;;6.32;5.72;;;;;;;;;;5077411;28;20469;-68
2021/12/14 01:37:24;;;;;;;7.68;6.85;;;;;;;;;;5077811;28;20270;-68
2021/12/14 01:40:03;;;;;;;6.50;5.88;;;;;;;;;;5077522;28;20283;-68
2021/12/14 01:42:33;;;;;;;6.47;5.88;;;;;;;;;;5060415;28;20221;-68
2021/12/14 01:45:05;;;;;;;7.35;5.95;;;;;;;;;;5057674;28;20225;-69
2021/12/14 01:47:33;;;;;;;7.35;6.65;;;;;;;;;;5057352;28;20225;-69
2021/12/14 01:50:00;;;;;;;6.97;6.28;;;;;;;;;;5057216;28;20209;-68
2021/12/14 01:52:27;;;;;;;7.82;6.15;;;;;;;;;;5057974;28;20412;-69
2021/12/14 01:54:55;;;;;;;9.73;7.22;;;;;;;;;;5057133;28;20291;-69
2021/12/14 01:57:24;;;;;;;8.85;7.68;;;;;;;;;;5057210;28;20213;-69
2021/12/14 01:59:55;;;;;;;9.02;7.90;;;;;;;;;;5057555;28;20209;-69
2021/12/14 02:02:30;;;;;;;8.38;7.47;;;;;;;;;;5060969;28;20209;-68
2021/12/14 02:04:57;;;;;;;7.95;7.00;;;;;;;;;;5060724;28;20216;-69
2021/12/14 02:07:25;;;;;;;8.27;7.40;;;;;;;;;;5060937;28;20567;-68
2021/12/14 02:09:53;;;;;;;8.20;7.32;;;;;;;;;;5073593;28;20207;-68
2021/12/14 02:12:21;;;;;;;7.95;6.47;;;;;;;;;;5068877;28;20615;-68
2021/12/14 02:14:48;;;;;;;9.30;6.88;;;;;;;;;;5061048;28;20209;-68
2021/12/14 02:17:18;;;;;;;8.23;7.15;;;;;;;;;;5060871;28;20288;-69
2021/12/14 02:19:45;;;;;;;7.97;7.10;;;;;;;;;;5061011;28;20209;-69
2021/12/14 02:22:16;;;;;;;8.55;7.28;;;;;;;;;;5060952;28;20417;-68
2021/12/14 02:24:43;;;;;;;8.65;7.03;;;;;;;;;;5061058;28;20544;-68
2021/12/14 02:27:10;;;;;;;10.80;7.22;;;;;;;;;;5062125;28;20228;-70
2021/12/14 02:29:38;;;;;;;7.78;6.95;;;;;;;;;;5062070;28;20205;-70
2021/12/14 02:32:07;;;;;;;8.38;7.32;;;;;;;;;;5061158;28;20206;-69
2021/12/14 02:34:38;;;;;;;9.60;8.13;;;;;;;;;;5060351;28;20209;-68
2021/12/14 02:37:04;;;;;;;8.45;7.53;;;;;;;;;;5059329;28;20688;-66
2021/12/14 02:39:47;;;;;;;11.30;8.98;;;;;;;;;;5060208;28;20201;-66
2021/12/14 02:42:15;;;;;;;10.07;8.00;;;;;;;;;;5059484;28;20217;-66
2021/12/14 02:44:46;;;;;;;9.80;8.27;;;;;;;;;;5058930;28;20497;-66
2021/12/14 02:47:15;;;;;;;12.52;8.38;;;;;;;;;;5058739;28;20357;-66
2021/12/14 02:49:41;;;;;;;11.30;7.50;;;;;;;;;;5059190;28;20223;-69
2021/12/14 02:52:12;;;;;;;10.18;7.43;;;;;;;;;;5070745;28;20520;-69
2021/12/14 02:54:44;;;;;;;8.70;7.78;;;;;;;;;;5079504;28;20201;-69
2021/12/14 02:57:12;;;;;;;8.75;7.38;;;;;;;;;;5080386;28;20204;-69
2021/12/14 02:59:41;;;;;;;9.43;7.50;;;;;;;;;;5080653;28;20212;-70
2021/12/14 03:02:08;;;;;;;8.73;7.18;;;;;;;;;;5080463;28;20409;-68
2021/12/14 03:04:38;;;;;;;10.32;8.25;;;;;;;;;;5080124;28;20265;-69
2021/12/14 03:07:05;;;;;;;10.27;8.10;;;;;;;;;;5078748;28;20220;-69
2021/12/14 03:09:39;;;;;;;9.50;7.35;;;;;;;;;;5070086;28;20508;-69
2021/12/14 03:12:10;;;;;;;10.38;8.18;;;;;;;;;;5060142;28;20206;-68
2021/12/14 03:14:37;;;;;;;14.38;8.23;;;;;;;;;;5062245;28;20292;-69
2021/12/14 03:17:03;;;;;;;12.15;8.68;;;;;;;;;;5059802;28;20447;-69
2021/12/14 03:19:30;;;;;;;9.50;7.88;;;;;;;;;;5060066;28;20517;-69
2021/12/14 03:21:56;;;;;;;12.98;9.32;;;;;;;;;;5059905;28;20209;-69
2021/12/14 03:24:23;;;;;;;17.90;9.80;;;;;;;;;;5059761;28;20209;-69
2021/12/14 03:26:51;;;;;;;10.85;8.63;;;;;;;;;;5067092;28;20235;-69
2021/12/14 03:29:21;;;;;;;10.93;8.50;;;;;;;;;;5078866;28;20208;-69
2021/12/14 03:31:49;;;;;;;14.55;9.75;;;;;;;;;;5079707;28;20246;-69
2021/12/14 03:34:18;;;;;;;11.55;9.43;;;;;;;;;;5079510;28;20212;-68
2021/12/14 03:36:46;;;;;;;11.65;9.27;;;;;;;;;;5079124;28;20570;-68
2021/12/14 03:39:13;;;;;;;12.15;9.35;;;;;;;;;;5079123;28;20212;-68
2021/12/14 03:41:42;;;;;;;14.63;9.98;;;;;;;;;;5078608;28;20223;-68
2021/12/14 03:44:10;;;;;;;12.82;9.98;;;;;;;;;;5079197;28;20250;-69
2021/12/14 03:46:42;;;;;;;14.10;10.20;;;;;;;;;;5078970;28;20755;-69
2021/12/14 03:49:09;;;;;;;14.77;10.02;;;;;;;;;;5079168;28;20211;-69
2021/12/14 03:51:36;;;;;;;14.10;10.60;;;;;;;;;;5079113;28;20219;-69
2021/12/14 03:54:03;;;;;;;15.68;10.52;;;;;;;;;;5079246;28;20223;-69
2021/12/14 03:56:29;;;;;;;14.77;10.10;;;;;;;;;;5078268;28;20258;-69
2021/12/14 03:58:56;;;;;;;16.65;10.75;;;;;;;;;;5078915;28;20407;-69
2021/12/14 04:01:25;;;;;;;16.05;10.35;;;;;;;;;;5078855;28;20215;-69
2021/12/14 04:03:55;;;;;;;14.52;10.07;;;;;;;;;;5078701;28;20208;-69
2021/12/14 04:06:22;;;;;;;17.17;10.25;;;;;;;;;;5078126;28;20461;-69
2021/12/14 04:08:49;;;;;;;13.60;9.93;;;;;;;;;;5070933;28;20528;-69
2021/12/14 04:11:16;;;;;;;16.13;9.48;;;;;;;;;;5058871;28;20216;-69
2021/12/14 04:13:43;;;;;;;16.35;9.90;;;;;;;;;;5058694;28;20208;-69
2021/12/14 04:16:11;;;;;;;11.15;8.68;;;;;;;;;;5058152;28;20404;-69
2021/12/14 04:18:38;;;;;;;16.10;10.48;;;;;;;;;;5058679;28;20212;-69
2021/12/14 04:21:06;;;;;;;16.80;9.02;;;;;;;;;;5058972;28;20250;-69
2021/12/14 04:23:34;;;;;;;14.63;9.90;;;;;;;;;;5065616;28;20387;-69
2021/12/14 04:26:01;;;;;;;11.40;7.80;;;;;;;;;;5076736;28;20446;-69
2021/12/14 04:28:31;;;;;;;13.20;8.25;;;;;;;;;;5058313;28;20225;-68
2021/12/14 04:30:58;;;;;;;12.18;8.10;;;;;;;;;;5058676;28;20291;-68
2021/12/14 04:33:25;;;;;;;15.20;8.80;;;;;;;;;;5058166;28;20225;-69
2021/12/14 04:35:51;;;;;;;36.55;20.02;;;;;;;;;;5057860;28;20209;-69
2021/12/14 04:38:23;;;;;;;23.17;12.85;;;;;;;;;;5075380;28;20239;-68
2021/12/14 04:51:59;;;;;;;10.98;6.78;;;;;;;;;;5057076;28;20740;-68
2021/12/14 04:54:27;;;;;;;14.65;7.72;;;;;;;;;;5057842;28;20204;-68
2021/12/14 04:56:54;;;;;;;14.10;7.57;;;;;;;;;;5057612;28;20528;-68
2021/12/14 04:59:23;;;;;;;12.65;7.22;;;;;;;;;;5072031;28;20415;-68
2021/12/14 05:01:51;;;;;;;12.40;7.22;;;;;;;;;;5076895;28;20600;-68
2021/12/14 05:04:19;;;;;;;13.23;7.28;;;;;;;;;;5077076;28;20238;-68
2021/12/14 05:06:48;;;;;;;9.32;6.10;;;;;;;;;;5066711;28;20217;-68
2021/12/14 05:09:21;;;;;;;9.57;5.95;;;;;;;;;;5071388;28;20254;-68
2021/12/14 05:11:49;;;;;;;10.30;6.30;;;;;;;;;;5076965;28;20534;-68
2021/12/14 05:14:16;;;;;;;11.68;6.53;;;;;;;;;;5076658;28;20402;-68
2021/12/14 05:16:42;;;;;;;13.10;7.15;;;;;;;;;;5076215;28;20208;-68
2021/12/14 05:19:11;;;;;;;12.60;7.15;;;;;;;;;;5063171;28;20251;-68
2021/12/14 05:21:39;;;;;;;12.63;8.05;;;;;;;;;;5056734;28;20208;-68
2021/12/14 05:24:08;;;;;;;15.43;8.15;;;;;;;;;;5056542;28;20394;-68
2021/12/14 05:26:36;;;;;;;13.88;8.20;;;;;;;;;;5061681;28;20231;-68
2021/12/14 05:29:04;;;;;;;11.23;7.30;;;;;;;;;;5075843;28;20529;-68
2021/12/14 05:31:31;;;;;;;13.77;6.93;;;;;;;;;;5076661;28;20208;-68
2021/12/14 05:33:57;;;;;;;10.23;6.45;;;;;;;;;;5073575;28;20208;-68
2021/12/14 05:36:25;;;;;;;10.15;6.82;;;;;;;;;;5057993;28;20208;-68
2021/12/14 05:39:01;;;;;;;7.97;6.35;;;;;;;;;;5071098;28;20200;-68
2021/12/14 05:44:15;;;;;;;8.95;6.65;;;;;;;;;;5080875;28;20250;-68
2021/12/14 05:46:49;;;;;;;9.15;6.55;;;;;;;;;;5079919;28;20586;-68
2021/12/14 05:49:17;;;;;;;8.32;5.63;;;;;;;;;;5066558;28;20271;-68
2021/12/14 05:51:43;;;;;;;8.65;6.32;;;;;;;;;;5060487;28;20509;-68
2021/12/14 05:54:10;;;;;;;11.30;6.43;;;;;;;;;;5060512;28;20209;-68
2021/12/14 05:56:37;;;;;;;9.80;6.22;;;;;;;;;;5059653;28;20220;-68
2021/12/14 05:59:03;;;;;;;9.95;6.85;;;;;;;;;;5072370;28;20216;-68
2021/12/14 06:01:33;;;;;;;12.18;7.93;;;;;;;;;;5080330;28;20402;-68
2021/12/14 06:04:00;;;;;;;11.95;7.75;;;;;;;;;;5080632;28;20516;-68
2021/12/14 06:06:29;;;;;;;12.20;7.55;;;;;;;;;;5080539;28;20527;-68
2021/12/14 06:09:00;;;;;;;12.13;7.45;;;;;;;;;;5080449;28;20466;-68
2021/12/14 06:11:28;;;;;;;11.63;7.15;;;;;;;;;;5081330;28;20200;-68
2021/12/14 06:13:55;;;;;;;11.07;7.15;;;;;;;;;;5080823;28;20215;-68
2021/12/14 06:16:23;;;;;;;9.10;6.57;;;;;;;;;;5080613;28;20209;-68
2021/12/14 06:18:51;;;;;;;10.48;6.70;;;;;;;;;;5070537;28;20415;-68
2021/12/14 06:21:18;;;;;;;11.70;7.25;;;;;;;;;;5059965;28;20536;-68
2021/12/14 06:23:45;;;;;;;12.05;7.50;;;;;;;;;;5060021;28;20215;-68
2021/12/14 06:26:13;;;;;;;10.95;7.65;;;;;;;;;;5061409;28;20204;-68
2021/12/14 06:28:39;;;;;;;11.20;7.25;;;;;;;;;;5068064;28;20220;-68
2021/12/14 06:31:06;;;;;;;9.98;6.72;;;;;;;;;;5079824;28;20215;-68
2021/12/14 06:33:34;;;;;;;11.90;8.02;;;;;;;;;;5079709;28;20208;-68
2021/12/14 06:36:02;;;;;;;9.43;7.28;;;;;;;;;;5078312;28;20419;-68
2021/12/14 06:38:30;;;;;;;11.80;8.02;;;;;;;;;;5072577;28;20454;-68
2021/12/14 06:40:58;;;;;;;15.27;9.68;;;;;;;;;;5059411;28;20616;-68
2021/12/14 06:43:26;;;;;;;9.68;7.90;;;;;;;;;;5059401;28;20209;-68
2021/12/14 06:45:55;;;;;;;9.48;7.00;;;;;;;;;;5058459;28;20229;-68
2021/12/14 06:48:24;;;;;;;13.02;8.25;;;;;;;;;;5064240;28;20475;-69
2021/12/14 06:50:51;;;;;;;12.57;8.57;;;;;;;;;;5079282;28;20230;-69
2021/12/14 06:53:20;;;;;;;16.38;9.35;;;;;;;;;;5079451;28;20209;-69
2021/12/14 06:55:47;;;;;;;15.45;8.85;;;;;;;;;;5060097;28;20421;-69
2021/12/14 06:58:15;;;;;;;12.32;8.77;;;;;;;;;;5063305;28;20208;-69
2021/12/14 07:00:42;;;;;;;12.50;8.35;;;;;;;;;;5079381;28;20208;-69
2021/12/14 07:03:09;;;;;;;13.55;9.00;;;;;;;;;;5079161;28;20520;-69
2021/12/14 07:05:36;;;;;;;12.82;8.50;;;;;;;;;;5078746;28;20208;-69
2021/12/14 07:08:08;;;;;;;14.73;8.65;;;;;;;;;;5076633;28;20238;-69
2021/12/14 07:10:37;;;;;;;14.68;8.93;;;;;;;;;;5059026;28;20439;-68
2021/12/14 07:13:09;;;;;;;14.05;8.32;;;;;;;;;;5062605;28;20196;-68
2021/12/14 07:15:36;;;;;;;12.68;8.88;;;;;;;;;;5059930;28;20201;-67
2021/12/14 07:18:04;;;;;;;11.48;7.97;;;;;;;;;;5058696;28;20237;-68
2021/12/14 07:20:32;;;;;;;14.40;9.80;;;;;;;;;;5058697;28;20312;-68
2021/12/14 07:23:01;;;;;;;15.82;9.32;;;;;;;;;;5059618;28;20209;-68
2021/12/14 07:25:28;;;;;;;18.70;10.32;;;;;;;;;;5073563;28;20272;-67
2021/12/14 07:27:56;;;;;;;17.50;9.20;;;;;;;;;;5074028;28;20231;-68
2021/12/14 07:30:25;;;;;;;13.35;8.55;;;;;;;;;;5066923;28;20216;-68
2021/12/14 07:32:54;;;;;;;10.25;7.28;;;;;;;;;;5058806;28;20234;-68
2021/12/14 07:35:24;;;;;;;12.07;8.30;;;;;;;;;;5058153;28;20521;-68
2021/12/14 07:37:51;;;;;;;9.77;7.00;;;;;;;;;;5058209;28;20490;-68
2021/12/14 07:40:18;;;;;;;9.80;7.03;;;;;;;;;;5068341;28;20216;-68
2021/12/14 07:42:46;;;;;;;12.30;7.75;;;;;;;;;;5078917;28;20216;-69
2021/12/14 07:45:23;;;;;;;11.77;7.90;;;;;;;;;;5076616;28;20544;-69
2021/12/14 07:47:50;;;;;;;8.40;7.13;;;;;;;;;;5072338;28;20224;-63
2021/12/14 07:50:16;;;;;;;8.38;6.25;;;;;;;;;;5060210;28;20209;-59
2021/12/14 07:52:43;;;;;;;7.43;5.95;;;;;;;;;;5069038;28;20221;-59
2021/12/14 07:55:11;;;;;;;7.13;6.22;;;;;;;;;;5064411;28;20200;-61
2021/12/14 07:57:39;;;;;;;7.28;5.75;;;;;;;;;;5076691;28;20215;-61
2021/12/14 08:00:08;;;;;;;6.93;6.03;;;;;;;;;;5077290;28;20208;-60
2021/12/14 08:02:37;;;;;;;6.68;5.65;;;;;;;;;;5066794;28;20353;-59
2021/12/14 08:05:06;;;;;;;6.88;6.18;;;;;;;;;;5065299;28;20281;-60
2021/12/14 08:07:33;;;;;;;6.70;5.80;;;;;;;;;;5071350;28;20808;-59
2021/12/14 08:10:07;;;;;;;6.45;5.63;;;;;;;;;;5080241;28;20200;-60
2021/12/14 08:12:36;;;;;;;6.13;5.50;;;;;;;;;;5071836;28;20255;-60
2021/12/14 08:15:06;;;;;;;7.68;6.38;;;;;;;;;;5063682;28;20209;-60
2021/12/14 08:17:32;;;;;;;7.20;5.90;;;;;;;;;;5063265;28;20228;-60
2021/12/14 08:20:00;;;;;;;7.40;5.70;;;;;;;;;;5068488;28;20209;-60
2021/12/14 08:22:29;;;;;;;6.40;5.80;;;;;;;;;;5060021;28;20209;-59
2021/12/14 08:24:55;;;;;;;6.20;5.60;;;;;;;;;;5059828;28;20208;-60
2021/12/14 08:27:23;;;;;;;7.60;6.43;;;;;;;;;;5060889;28;20212;-62
2021/12/14 08:29:51;;;;;;;5.93;5.30;;;;;;;;;;5058826;28;20232;-61
2021/12/14 08:32:20;;;;;;;5.97;5.45;;;;;;;;;;5058474;28;20209;-61
2021/12/14 08:34:47;;;;;;;6.35;5.75;;;;;;;;;;5060087;28;20524;-59
2021/12/14 08:37:17;;;;;;;6.30;5.00;;;;;;;;;;5059200;28;20383;-59
2021/12/14 08:39:46;;;;;;;7.07;5.90;;;;;;;;;;5059767;28;20201;-59
2021/12/14 08:42:17;;;;;;;6.97;5.38;;;;;;;;;;5071215;28;20216;-58
2021/12/14 08:44:51;;;;;;;5.95;5.38;;;;;;;;;;5065152;28;20233;-57
2021/12/14 08:47:22;;;;;;;5.90;5.13;;;;;;;;;;5071080;28;20209;-57
2021/12/14 08:49:48;;;;;;;8.25;5.55;;;;;;;;;;5059565;28;20244;-58
2021/12/14 08:52:16;;;;;;;6.85;5.50;;;;;;;;;;5073434;28;20209;-59
2021/12/14 08:54:43;;;;;;;6.32;5.25;;;;;;;;;;5075180;28;20409;-59
2021/12/14 08:57:13;;;;;;;5.30;4.80;;;;;;;;;;5073518;28;20541;-59
2021/12/14 08:59:41;;;;;;;8.27;5.75;;;;;;;;;;5061560;28;20205;-61
2021/12/14 09:02:08;;;;;;;7.75;6.32;;;;;;;;;;5072278;28;20228;-59
2021/12/14 09:04:36;;;;;;;5.78;5.25;;;;;;;;;;5078126;28;20209;-60
2021/12/14 09:07:04;;;;;;;5.43;4.90;;;;;;;;;;5063699;28;20256;-60
2021/12/14 09:09:32;;;;;;;6.18;5.55;;;;;;;;;;5064808;28;20220;-59
2021/12/14 09:12:02;;;;;;;5.75;5.25;;;;;;;;;;5077222;28;20251;-60
2021/12/14 09:14:30;;;;;;;8.70;5.75;;;;;;;;;;5080699;28;20221;-60
2021/12/14 09:16:58;;;;;;;6.50;5.80;;;;;;;;;;5077781;28;20205;-61
2021/12/14 09:19:25;;;;;;;6.40;5.75;;;;;;;;;;5077952;28;20279;-61
2021/12/14 09:21:54;;;;;;;6.22;5.68;;;;;;;;;;5064394;28;20246;-58
2021/12/14 09:24:22;;;;;;;8.90;5.88;;;;;;;;;;5060173;28;20208;-58
2021/12/14 09:26:51;;;;;;;6.88;6.28;;;;;;;;;;5057322;28;20205;-58
2021/12/14 09:29:19;;;;;;;8.05;5.63;;;;;;;;;;5059555;28;20213;-59
2021/12/14 09:31:48;;;;;;;8.18;6.55;;;;;;;;;;5060163;28;20525;-57
2021/12/14 09:34:15;;;;;;;8.70;5.97;;;;;;;;;;5062329;28;20213;-60
2021/12/14 09:36:43;;;;;;;6.90;6.20;;;;;;;;;;5076780;28;20200;-60
2021/12/14 09:39:11;;;;;;;7.47;6.20;;;;;;;;;;5067848;28;20319;-59
2021/12/14 09:41:39;;;;;;;6.65;6.05;;;;;;;;;;5060854;28;20239;-58
2021/12/14 09:44:09;;;;;;;6.72;6.07;;;;;;;;;;5060555;28;20520;-60
2021/12/14 09:46:38;;;;;;;8.98;6.15;;;;;;;;;;5059402;28;20423;-60
2021/12/14 09:49:06;;;;;;;6.32;5.30;;;;;;;;;;5062843;28;20290;-58
2021/12/14 09:51:33;;;;;;;7.10;6.28;;;;;;;;;;5078822;28;20231;-61
2021/12/14 09:54:02;;;;;;;7.43;5.28;;;;;;;;;;5071430;28;20217;-59
2021/12/14 09:56:29;;;;;;;7.50;5.80;;;;;;;;;;5067153;28;20445;-59
2021/12/14 09:58:59;;;;;;;6.85;5.70;;;;;;;;;;5058939;28;20211;-59
2021/12/14 10:01:29;;;;;;;6.80;6.10;;;;;;;;;;5058863;28;20209;-59
2021/12/14 10:03:57;;;;;;;6.75;6.13;;;;;;;;;;5090409;28;20200;-60
2021/12/14 10:06:25;;;;;;;6.90;6.15;;;;;;;;;;5077380;28;20208;-59
2021/12/14 10:08:57;;;;;;;7.15;5.78;;;;;;;;;;5060876;28;20220;-61
2021/12/14 10:11:34;;;;;;;6.90;6.15;;;;;;;;;;5057110;28;20340;-61
2021/12/14 10:14:00;;;;;;;10.73;5.93;;;;;;;;;;5059155;28;20289;-59
2021/12/14 10:16:28;;;;;;;7.22;6.30;;;;;;;;;;5059213;28;20209;-59
2021/12/14 10:18:56;;;;;;;7.10;5.95;;;;;;;;;;5057631;28;20393;-59
2021/12/14 10:21:26;;;;;;;6.18;5.68;;;;;;;;;;5077472;28;20230;-59
2021/12/14 10:23:53;;;;;;;9.48;6.75;;;;;;;;;;5069897;28;20213;-58
2021/12/14 10:26:21;;;;;;;7.10;6.22;;;;;;;;;;5063459;28;20242;-58
2021/12/14 10:28:49;;;;;;;10.55;7.38;;;;;;;;;;5061817;28;20220;-59
2021/12/14 10:31:19;;;;;;;10.15;7.45;;;;;;;;;;5069756;28;20212;-58
2021/12/14 10:33:47;;;;;;;7.25;6.53;;;;;;;;;;5081375;28;20552;-58
2021/12/14 10:36:23;;;;;;;6.97;6.25;;;;;;;;;;5071795;28;20197;-59
2021/12/14 10:44:16;;;;;;;10.48;7.25;;;;;;;;;;5055138;28;20205;-60
2021/12/14 10:46:46;;;;;;;6.35;5.75;;;;;;;;;;5061246;28;20334;-59
2021/12/14 10:49:14;;;;;;;7.03;6.10;;;;;;;;;;5060203;28;20436;-59
2021/12/14 10:51:42;;;;;;;7.15;6.35;;;;;;;;;;5070803;28;20207;-59
2021/12/14 10:54:12;;;;;;;7.40;6.60;;;;;;;;;;5080974;28;20254;-59
2021/12/14 10:56:40;;;;;;;8.70;5.72;;;;;;;;;;5079400;28;20208;-59
2021/12/14 10:59:07;;;;;;;6.13;5.53;;;;;;;;;;5080076;28;20204;-59
2021/12/14 11:01:35;;;;;;;6.45;5.85;;;;;;;;;;5080959;28;20208;-59
2021/12/14 11:04:03;;;;;;;8.43;6.15;;;;;;;;;;5078885;28;20217;-60
2021/12/14 11:06:32;;;;;;;6.43;5.63;;;;;;;;;;5062383;28;20762;-59
2021/12/14 11:09:39;;;;;;;6.57;5.82;;;;;;;;;;5063013;28;20441;-60
2021/12/14 11:11:50;;;;;;;7.15;6.38;;;;;;;;;;5062636;28;20205;-59
2021/12/14 11:14:18;;;;;;;6.53;5.78;;;;;;;;;;5062305;28;20496;-60
2021/12/14 11:19:34;;;;;;;8.60;6.38;;;;;;;;;;5062463;28;20207;-60
2021/12/14 11:22:10;;;;;;;6.97;6.20;;;;;;;;;;5060936;28;20201;-60
2021/12/14 11:24:38;;;;;;;7.00;6.30;;;;;;;;;;5072670;28;20215;-60
2021/12/14 11:27:11;;;;;;;10.75;6.18;;;;;;;;;;5076740;28;20485;-60
2021/12/14 11:29:37;;;;;;;6.45;5.72;;;;;;;;;;5079504;28;20251;-59
2021/12/14 11:32:04;;;;;;;6.40;5.63;;;;;;;;;;5082830;28;20208;-59
2021/12/14 11:34:35;;;;;;;7.22;6.15;;;;;;;;;;5080713;28;20208;-59
2021/12/14 11:37:05;;;;;;;7.22;5.97;;;;;;;;;;5066412;28;20286;-59
2021/12/14 11:39:37;;;;;;;6.15;5.60;;;;;;;;;;5061456;28;20213;-59
2021/12/14 11:42:05;;;;;;;5.85;5.35;;;;;;;;;;5060529;28;20599;-59
2021/12/14 11:44:32;;;;;;;7.85;6.07;;;;;;;;;;5061127;28;20209;-60
2021/12/14 11:47:06;;;;;;;7.30;5.97;;;;;;;;;;5059889;28;20524;-59
2021/12/14 11:49:47;;;;;;;6.72;5.63;;;;;;;;;;5061274;28;20253;-59
2021/12/14 11:52:14;;;;;;;7.95;6.20;;;;;;;;;;5059922;28;20438;-59
2021/12/14 11:54:43;;;;;;;6.05;5.55;;;;;;;;;;5060366;28;20201;-62
2021/12/14 11:57:10;;;;;;;6.18;5.57;;;;;;;;;;5057383;28;20234;-63
2021/12/14 11:59:36;;;;;;;13.10;6.95;;;;;;;;;;5073693;28;20406;-63
2021/12/14 12:02:03;;;;;;;8.75;5.80;;;;;;;;;;5078617;28;20310;-63
2021/12/14 12:04:34;;;;;;;10.60;6.50;;;;;;;;;;5059510;28;21113;-63
2021/12/14 12:09:48;;;;;;;7.35;6.18;;;;;;;;;;5077008;28;20239;-63
2021/12/14 12:12:19;;;;;;;11.65;8.48;;;;;;;;;;5078331;28;20204;-63
2021/12/14 12:14:47;;;;;;;9.18;7.18;;;;;;;;;;5078189;28;20200;-63
2021/12/14 12:17:16;;;;;;;9.70;7.40;;;;;;;;;;5074994;28;20197;-60
2021/12/14 12:19:51;;;;;;;7.45;6.75;;;;;;;;;;5059213;28;20205;-59
2021/12/14 12:22:17;;;;;;;7.05;6.45;;;;;;;;;;5071886;28;20211;-59
2021/12/14 12:24:45;;;;;;;6.82;6.22;;;;;;;;;;5078397;28;20200;-60
2021/12/14 12:27:18;;;;;;;7.10;6.30;;;;;;;;;;5062521;28;20216;-59
2021/12/14 12:29:45;;;;;;;9.00;6.55;;;;;;;;;;5061291;28;20217;-61
2021/12/14 12:32:19;;;;;;;7.38;6.50;;;;;;;;;;5060091;28;20255;-61
2021/12/14 12:34:48;;;;;;;7.60;6.55;;;;;;;;;;5070619;28;20276;-60
2021/12/14 12:37:16;;;;;;;8.93;7.03;;;;;;;;;;5080074;28;20261;-61
2021/12/14 12:39:47;;;;;;;7.00;6.32;;;;;;;;;;5076095;28;20205;-60
2021/12/14 12:42:15;;;;;;;7.07;5.63;;;;;;;;;;5060483;28;20217;-60
2021/12/14 12:44:43;;;;;;;8.80;7.18;;;;;;;;;;5061136;28;20217;-60
2021/12/14 12:47:11;;;;;;;7.80;7.10;;;;;;;;;;5064968;28;20205;-61
2021/12/14 12:49:38;;;;;;;6.68;6.07;;;;;;;;;;5080626;28;20560;-60
2021/12/14 12:52:09;;;;;;;7.40;6.57;;;;;;;;;;5073338;28;20205;-59
2021/12/14 12:54:39;;;;;;;7.15;6.45;;;;;;;;;;5071936;28;20578;-58
2021/12/14 12:57:28;;;;;;;8.88;6.50;;;;;;;;;;5072875;28;20205;-59
2021/12/14 12:59:58;;;;;;;9.25;6.57;;;;;;;;;;5067529;28;20209;-58
2021/12/14 13:02:27;;;;;;;7.55;6.78;;;;;;;;;;5067812;28;20225;-59
2021/12/14 13:04:56;;;;;;;8.73;6.18;;;;;;;;;;5060928;28;20465;-59
2021/12/14 13:07:30;;;;;;;9.43;6.60;;;;;;;;;;5079024;28;20209;-58
2021/12/14 13:10:05;;;;;;;7.68;6.55;;;;;;;;;;5073018;28;20224;-59
2021/12/14 13:12:40;;;;;;;8.18;6.65;;;;;;;;;;5081263;28;20219;-60
2021/12/14 13:15:27;;;;;;;8.50;6.82;;;;;;;;;;5079855;28;20470;-58
2021/12/14 13:18:14;;;;;;;10.43;6.40;;;;;;;;;;5079996;28;20207;-60
2021/12/14 13:20:41;;;;;;;7.20;6.50;;;;;;;;;;5071619;28;20200;-59
2021/12/14 13:23:07;;;;;;;7.05;6.30;;;;;;;;;;5076056;28;20226;-59
2021/12/14 13:25:34;;;;;;;7.35;6.63;;;;;;;;;;5075439;28;20215;-59
2021/12/14 13:28:00;;;;;;;12.02;6.10;;;;;;;;;;5059759;28;20485;-58
2021/12/14 13:30:29;;;;;;;8.77;6.95;;;;;;;;;;5064224;28;20213;-58
2021/12/14 13:32:56;;;;;;;7.85;7.05;;;;;;;;;;5066176;28;20204;-59
2021/12/14 13:35:24;;;;;;;6.80;6.10;;;;;;;;;;5098871;28;20207;-59
2021/12/14 13:37:53;;;;;;;6.70;6.10;;;;;;;;;;5077477;28;20217;-54
2021/12/14 13:40:21;;;;;;;9.95;7.03;;;;;;;;;;5071723;28;20409;-54
2021/12/14 13:42:51;;;;;;;7.47;6.72;;;;;;;;;;5057807;28;20236;-54
2021/12/14 13:45:19;;;;;;;7.95;6.72;;;;;;;;;;5055304;28;20232;-54
2021/12/14 13:47:49;;;;;;;9.13;6.70;;;;;;;;;;5056752;28;20209;-54
2021/12/14 13:50:17;;;;;;;7.05;6.38;;;;;;;;;;5057118;28;20256;-52
2021/12/14 13:52:44;;;;;;;7.53;6.82;;;;;;;;;;5055691;28;20216;-54
2021/12/14 13:55:22;;;;;;;7.88;6.90;;;;;;;;;;5072899;28;20208;-52
2021/12/14 13:57:51;;;;;;;7.63;6.90;;;;;;;;;;5060458;28;20208;-53
2021/12/14 14:00:19;;;;;;;7.88;7.18;;;;;;;;;;5066433;28;20205;-51
2021/12/14 14:02:47;;;;;;;8.60;7.70;;;;;;;;;;5059916;28;20232;-53
2021/12/14 14:05:14;;;;;;;11.30;7.55;;;;;;;;;;5058908;28;20443;-55
2021/12/14 14:07:40;;;;;;;8.77;7.88;;;;;;;;;;5059431;28;20209;-56
2021/12/14 14:10:07;;;;;;;10.82;8.45;;;;;;;;;;5059642;28;20418;-54
2021/12/14 14:12:43;;;;;;;9.15;8.25;;;;;;;;;;5068410;28;20554;-56
2021/12/14 14:15:14;;;;;;;9.30;8.23;;;;;;;;;;5078616;28;20343;-58
2021/12/14 14:17:46;;;;;;;11.27;8.80;;;;;;;;;;5078945;28;20215;-57
2021/12/14 14:20:18;;;;;;;12.85;9.90;;;;;;;;;;5078858;28;20204;-57
2021/12/14 14:22:44;;;;;;;11.32;9.70;;;;;;;;;;5065220;28;20209;-57
2021/12/14 14:25:13;;;;;;;13.13;9.73;;;;;;;;;;5062278;28;20406;-58
2021/12/14 14:27:41;;;;;;;11.73;10.07;;;;;;;;;;5075215;28;20258;-61
2021/12/14 14:30:32;;;;;;;14.32;10.07;;;;;;;;;;5080559;28;20224;-61
2021/12/14 14:33:00;;;;;;;11.57;10.38;;;;;;;;;;5079211;28;20212;-58
2021/12/14 14:35:41;;;;;;;12.75;10.45;;;;;;;;;;5080387;28;20212;-59
2021/12/14 14:38:22;;;;;;;14.98;10.95;;;;;;;;;;5065070;28;20280;-59
2021/12/14 14:40:48;;;;;;;14.98;10.40;;;;;;;;;;5067208;28;20204;-59
2021/12/14 14:43:15;;;;;;;12.57;10.75;;;;;;;;;;5064385;28;20209;-58
2021/12/14 14:45:43;;;;;;;13.60;9.93;;;;;;;;;;5077189;28;20224;-58
2021/12/14 14:48:17;;;;;;;12.88;9.93;;;;;;;;;;5062160;28;20216;-59
2021/12/14 14:50:45;;;;;;;10.73;9.18;;;;;;;;;;5079021;28;20235;-59
2021/12/14 14:53:13;;;;;;;11.68;9.40;;;;;;;;;;5061824;28;20505;-59
2021/12/14 14:55:42;;;;;;;11.00;8.77;;;;;;;;;;5079956;28;20223;-59
2021/12/14 14:58:10;;;;;;;10.23;8.93;;;;;;;;;;5080304;28;20456;-59
2021/12/14 15:00:39;;;;;;;11.20;8.90;;;;;;;;;;5082486;28;20525;-59
2021/12/14 15:03:11;;;;;;;13.10;9.25;;;;;;;;;;5080487;28;20201;-58
2021/12/14 15:05:41;;;;;;;14.60;9.73;;;;;;;;;;5081154;28;20508;-59
2021/12/14 15:08:12;;;;;;;14.30;10.10;;;;;;;;;;5081081;28;20250;-59
2021/12/14 15:10:41;;;;;;;16.75;10.43;;;;;;;;;;5082974;28;20306;-58
2021/12/14 15:13:21;;;;;;;13.02;10.38;;;;;;;;;;5080526;28;20204;-59
2021/12/14 15:15:59;;;;;;;14.88;10.68;;;;;;;;;;5074784;28;20209;-58
2021/12/14 15:18:44;;;;;;;18.77;11.60;;;;;;;;;;5077182;28;20204;-59
2021/12/14 15:21:40;;;;;;;13.02;10.20;;;;;;;;;;5063728;28;20228;-58
2021/12/14 15:24:25;;;;;;;14.48;9.75;;;;;;;;;;5037879;28;20210;-59
2021/12/14 15:27:06;;;;;;;14.95;10.10;;;;;;;;;;5067937;28;20212;-58
2021/12/14 15:29:34;;;;;;;13.00;10.38;;;;;;;;;;5080697;28;20235;-57